sensor_id;sensor_type;location;lat;lon;timestamp;pressure;altitude;pressure_sealevel;temperature;humidity
77587;BME280;66744;49.716;17.158;2023-07-28T00:01:52;98359.41;;;20.60;48.42
77587;BME280;66744;49.716;17.158;2023-07-28T00:04:54;98369.81;;;20.60;49.05
77587;BME280;66744;49.716;17.158;2023-07-28T00:07:55;98373.41;;;20.55;48.65
77587;BME280;66744;49.716;17.158;2023-07-28T00:10:59;98371.94;;;20.48;48.64
77587;BME280;66744;49.716;17.158;2023-07-28T00:14:03;98370.66;;;20.49;48.81
77587;BME280;66744;49.716;17.158;2023-07-28T00:17:07;98379.50;;;20.53;49.83
77587;BME280;66744;49.716;17.158;2023-07-28T00:20:13;98370.13;;;20.50;50.73
77587;BME280;66744;49.716;17.158;2023-07-28T00:23:15;98360.09;;;20.36;51.40
77587;BME280;66744;49.716;17.158;2023-07-28T00:26:22;98374.81;;;20.37;49.97
77587;BME280;66744;49.716;17.158;2023-07-28T00:29:24;98366.44;;;20.31;49.16
77587;BME280;66744;49.716;17.158;2023-07-28T00:32:25;98371.72;;;20.40;48.65
77587;BME280;66744;49.716;17.158;2023-07-28T00:35:27;98370.72;;;20.38;48.13
77587;BME280;66744;49.716;17.158;2023-07-28T00:38:34;98378.03;;;20.46;48.58
77587;BME280;66744;49.716;17.158;2023-07-28T00:41:41;98366.09;;;20.46;48.37
77587;BME280;66744;49.716;17.158;2023-07-28T00:44:45;98365.06;;;20.49;47.73
77587;BME280;66744;49.716;17.158;2023-07-28T00:47:46;98368.06;;;20.57;47.96
77587;BME280;66744;49.716;17.158;2023-07-28T00:50:50;98363.19;;;20.63;48.13
77587;BME280;66744;49.716;17.158;2023-07-28T00:53:53;98354.28;;;20.64;48.14
77587;BME280;66744;49.716;17.158;2023-07-28T00:56:55;98361.41;;;20.65;48.24
77587;BME280;66744;49.716;17.158;2023-07-28T00:59:57;98347.28;;;20.52;48.95
77587;BME280;66744;49.716;17.158;2023-07-28T01:03:00;98353.13;;;20.54;49.87
77587;BME280;66744;49.716;17.158;2023-07-28T01:06:29;98339.50;;;20.45;50.22
77587;BME280;66744;49.716;17.158;2023-07-28T01:09:42;98338.53;;;20.37;51.30
77587;BME280;66744;49.716;17.158;2023-07-28T01:12:45;98339.28;;;20.37;50.78
77587;BME280;66744;49.716;17.158;2023-07-28T01:15:47;98335.22;;;20.38;50.62
77587;BME280;66744;49.716;17.158;2023-07-28T01:18:48;98329.59;;;20.44;51.29
77587;BME280;66744;49.716;17.158;2023-07-28T01:25:43;98335.22;;;20.38;50.88
77587;BME280;66744;49.716;17.158;2023-07-28T01:28:48;98318.56;;;20.27;51.75
77587;BME280;66744;49.716;17.158;2023-07-28T01:31:51;98325.41;;;20.26;52.88
77587;BME280;66744;49.716;17.158;2023-07-28T01:34:52;98318.03;;;20.29;52.20
77587;BME280;66744;49.716;17.158;2023-07-28T01:37:54;98317.75;;;20.32;52.99
77587;BME280;66744;49.716;17.158;2023-07-28T01:40:58;98318.13;;;20.12;53.84
77587;BME280;66744;49.716;17.158;2023-07-28T01:43:59;98320.28;;;19.95;54.01
77587;BME280;66744;49.716;17.158;2023-07-28T01:47:02;98319.72;;;20.02;54.93
77587;BME280;66744;49.716;17.158;2023-07-28T01:50:06;98320.75;;;19.99;55.04
77587;BME280;66744;49.716;17.158;2023-07-28T01:53:07;98316.22;;;19.90;56.24
77587;BME280;66744;49.716;17.158;2023-07-28T01:56:13;98303.88;;;19.80;55.18
77587;BME280;66744;49.716;17.158;2023-07-28T01:59:21;98307.69;;;19.72;56.08
77587;BME280;66744;49.716;17.158;2023-07-28T02:02:46;98312.00;;;19.73;56.28
77587;BME280;66744;49.716;17.158;2023-07-28T02:05:48;98315.31;;;19.77;56.47
77587;BME280;66744;49.716;17.158;2023-07-28T02:08:50;98305.72;;;19.67;57.13
77587;BME280;66744;49.716;17.158;2023-07-28T02:11:51;98314.81;;;19.73;57.12
77587;BME280;66744;49.716;17.158;2023-07-28T02:14:53;98307.69;;;19.72;56.60
77587;BME280;66744;49.716;17.158;2023-07-28T02:17:54;98314.78;;;19.78;56.80
77587;BME280;66744;49.716;17.158;2023-07-28T02:20:56;98315.03;;;19.80;56.77
77587;BME280;66744;49.716;17.158;2023-07-28T02:23:57;98314.22;;;19.85;57.33
77587;BME280;66744;49.716;17.158;2023-07-28T02:26:59;98304.16;;;19.77;57.81
77587;BME280;66744;49.716;17.158;2023-07-28T02:30:01;98307.41;;;19.81;56.62
77587;BME280;66744;49.716;17.158;2023-07-28T02:33:04;98306.91;;;19.82;57.39
77587;BME280;66744;49.716;17.158;2023-07-28T02:36:06;98309.44;;;19.86;57.26
77587;BME280;66744;49.716;17.158;2023-07-28T02:39:08;98314.22;;;19.85;56.83
77587;BME280;66744;49.716;17.158;2023-07-28T02:42:09;98302.84;;;19.83;57.39
77587;BME280;66744;49.716;17.158;2023-07-28T02:45:36;98299.03;;;19.86;56.99
77587;BME280;66744;49.716;17.158;2023-07-28T02:48:38;98293.47;;;19.86;57.41
77587;BME280;66744;49.716;17.158;2023-07-28T02:51:39;98309.38;;;19.91;58.52
77587;BME280;66744;49.716;17.158;2023-07-28T02:54:41;98293.47;;;19.81;57.60
77587;BME280;66744;49.716;17.158;2023-07-28T02:57:42;98291.22;;;19.79;58.43
77587;BME280;66744;49.716;17.158;2023-07-28T03:00:44;98301.38;;;19.77;58.52
77587;BME280;66744;49.716;17.158;2023-07-28T03:03:50;98313.56;;;19.68;59.81
77587;BME280;66744;49.716;17.158;2023-07-28T03:06:52;98290.06;;;19.53;59.99
77587;BME280;66744;49.716;17.158;2023-07-28T03:09:53;98301.25;;;19.47;61.18
77587;BME280;66744;49.716;17.158;2023-07-28T03:12:56;98293.41;;;19.34;62.78
77587;BME280;66744;49.716;17.158;2023-07-28T03:15:57;98311.88;;;19.37;62.28
77587;BME280;66744;49.716;17.158;2023-07-28T03:18:59;98307.34;;;19.40;63.70
77587;BME280;66744;49.716;17.158;2023-07-28T03:22:00;98306.09;;;19.30;64.24
77587;BME280;66744;49.716;17.158;2023-07-28T03:25:03;98300.06;;;19.15;65.03
77587;BME280;66744;49.716;17.158;2023-07-28T03:28:05;98296.84;;;18.94;66.20
77587;BME280;66744;49.716;17.158;2023-07-28T03:31:08;98298.34;;;18.90;65.18
77587;BME280;66744;49.716;17.158;2023-07-28T03:34:10;98307.22;;;18.94;67.12
77587;BME280;66744;49.716;17.158;2023-07-28T03:37:11;98299.13;;;18.79;67.80
77587;BME280;66744;49.716;17.158;2023-07-28T03:40:13;98295.59;;;18.73;67.99
77587;BME280;66744;49.716;17.158;2023-07-28T03:43:27;98296.63;;;18.70;67.36
77587;BME280;66744;49.716;17.158;2023-07-28T03:46:29;98296.34;;;18.62;68.59
77587;BME280;66744;49.716;17.158;2023-07-28T03:49:30;98303.22;;;18.56;68.51
77587;BME280;66744;49.716;17.158;2023-07-28T03:52:31;98308.25;;;18.57;68.81
77587;BME280;66744;49.716;17.158;2023-07-28T03:55:34;98306.22;;;18.58;68.88
77587;BME280;66744;49.716;17.158;2023-07-28T03:58:36;98308.03;;;18.50;69.28
77587;BME280;66744;49.716;17.158;2023-07-28T04:01:37;98300.91;;;18.54;69.56
77587;BME280;66744;49.716;17.158;2023-07-28T04:04:38;98299.16;;;18.51;69.30
77587;BME280;66744;49.716;17.158;2023-07-28T04:07:40;98295.34;;;18.54;69.48
77587;BME280;66744;49.716;17.158;2023-07-28T04:10:42;98291.81;;;18.59;69.15
77587;BME280;66744;49.716;17.158;2023-07-28T04:13:43;98305.47;;;18.57;70.06
77587;BME280;66744;49.716;17.158;2023-07-28T04:16:45;98289.31;;;18.56;70.21
77587;BME280;66744;49.716;17.158;2023-07-28T04:19:47;98291.56;;;18.57;70.65
77587;BME280;66744;49.716;17.158;2023-07-28T04:22:49;98279.91;;;18.53;71.19
77587;BME280;66744;49.716;17.158;2023-07-28T04:25:53;98288.53;;;18.50;70.60
77587;BME280;66744;49.716;17.158;2023-07-28T04:28:55;98292.81;;;18.51;70.80
77587;BME280;66744;49.716;17.158;2023-07-28T04:31:56;98293.09;;;18.53;71.02
77587;BME280;66744;49.716;17.158;2023-07-28T04:35:08;98288.53;;;18.50;71.52
77587;BME280;66744;49.716;17.158;2023-07-28T04:38:28;98294.84;;;18.50;71.91
77587;BME280;66744;49.716;17.158;2023-07-28T04:41:32;98288.75;;;18.46;71.41
77587;BME280;66744;49.716;17.158;2023-07-28T04:44:34;98295.13;;;18.52;71.81
77587;BME280;66744;49.716;17.158;2023-07-28T04:47:40;98283.22;;;18.57;71.58
77587;BME280;66744;49.716;17.158;2023-07-28T04:50:44;98287.25;;;18.67;71.07
77587;BME280;66744;49.716;17.158;2023-07-28T04:54:18;98285.75;;;18.66;71.01
77587;BME280;66744;49.716;17.158;2023-07-28T04:57:20;98285.47;;;18.70;71.12
77587;BME280;66744;49.716;17.158;2023-07-28T05:00:22;98289.53;;;18.69;71.56
77587;BME280;66744;49.716;17.158;2023-07-28T05:03:25;98278.66;;;18.65;71.75
77587;BME280;66744;49.716;17.158;2023-07-28T05:06:31;98286.50;;;18.67;71.55
77587;BME280;66744;49.716;17.158;2023-07-28T05:09:33;98272.31;;;18.65;71.40
77587;BME280;66744;49.716;17.158;2023-07-28T05:12:34;98276.38;;;18.64;71.78
77587;BME280;66744;49.716;17.158;2023-07-28T05:15:36;98285.22;;;18.73;71.63
77587;BME280;66744;49.716;17.158;2023-07-28T05:18:38;98287.75;;;18.71;71.31
77587;BME280;66744;49.716;17.158;2023-07-28T05:22:15;98289.50;;;18.74;71.63
77587;BME280;66744;49.716;17.158;2023-07-28T05:25:24;98293.31;;;18.77;71.33
77587;BME280;66744;49.716;17.158;2023-07-28T05:28:26;98288.50;;;18.72;71.54
77587;BME280;66744;49.716;17.158;2023-07-28T05:31:30;98285.97;;;18.74;70.74
77587;BME280;66744;49.716;17.158;2023-07-28T05:34:33;98300.66;;;18.74;71.68
77587;BME280;66744;49.716;17.158;2023-07-28T05:37:35;98288.28;;;18.70;71.87
77587;BME280;66744;49.716;17.158;2023-07-28T05:40:36;98288.28;;;18.59;72.10
77587;BME280;66744;49.716;17.158;2023-07-28T05:43:38;98287.53;;;18.58;72.35
77587;BME280;66744;49.716;17.158;2023-07-28T05:46:39;98290.31;;;18.64;71.45
77587;BME280;66744;49.716;17.158;2023-07-28T05:49:42;98298.66;;;18.64;73.05
77587;BME280;66744;49.716;17.158;2023-07-28T05:52:44;98310.25;;;18.68;71.90
77587;BME280;66744;49.716;17.158;2023-07-28T05:55:45;98301.66;;;18.71;71.84
77587;BME280;66744;49.716;17.158;2023-07-28T05:58:47;98294.31;;;18.68;73.00
77587;BME280;66744;49.716;17.158;2023-07-28T06:01:49;98289.53;;;18.69;72.08
77587;BME280;66744;49.716;17.158;2023-07-28T06:05:26;98304.44;;;18.71;72.80
77587;BME280;66744;49.716;17.158;2023-07-28T06:08:28;98311.03;;;18.79;72.90
77587;BME280;66744;49.716;17.158;2023-07-28T06:11:32;98311.75;;;18.80;72.90
77587;BME280;66744;49.716;17.158;2023-07-28T06:14:34;98323.38;;;18.95;72.57
77587;BME280;66744;49.716;17.158;2023-07-28T06:17:37;98314.53;;;18.97;71.56
77587;BME280;66744;49.716;17.158;2023-07-28T06:20:42;98318.56;;;19.01;71.14
77587;BME280;66744;49.716;17.158;2023-07-28T06:23:44;98313.25;;;19.03;71.82
77587;BME280;66744;49.716;17.158;2023-07-28T06:26:45;98311.22;;;19.09;71.25
77587;BME280;66744;49.716;17.158;2023-07-28T06:29:47;98307.66;;;19.14;70.95
77587;BME280;66744;49.716;17.158;2023-07-28T06:32:48;98298.28;;;19.17;72.17
77587;BME280;66744;49.716;17.158;2023-07-28T06:35:50;98313.97;;;19.26;71.07
77587;BME280;66744;49.716;17.158;2023-07-28T06:38:54;98304.56;;;19.29;71.08
77587;BME280;66744;49.716;17.158;2023-07-28T06:41:56;98313.16;;;19.31;71.35
77587;BME280;66744;49.716;17.158;2023-07-28T06:45:00;98312.16;;;19.34;70.78
77587;BME280;66744;49.716;17.158;2023-07-28T06:48:06;98313.91;;;19.42;70.83
77587;BME280;66744;49.716;17.158;2023-07-28T06:51:07;98309.38;;;19.34;71.02
77587;BME280;66744;49.716;17.158;2023-07-28T06:54:11;98311.13;;;19.37;71.39
77587;BME280;66744;49.716;17.158;2023-07-28T06:57:15;98310.91;;;19.40;70.58
77587;BME280;66744;49.716;17.158;2023-07-28T07:00:16;98309.59;;;19.47;69.54
77587;BME280;66744;49.716;17.158;2023-07-28T07:03:19;98322.50;;;19.50;69.95
77587;BME280;66744;49.716;17.158;2023-07-28T07:06:20;98309.09;;;19.49;69.67
77587;BME280;66744;49.716;17.158;2023-07-28T07:09:24;98308.81;;;19.52;69.89
77587;BME280;66744;49.716;17.158;2023-07-28T07:12:25;98315.38;;;19.60;69.54
77587;BME280;66744;49.716;17.158;2023-07-28T07:15:27;98312.09;;;19.56;69.84
77587;BME280;66744;49.716;17.158;2023-07-28T07:18:34;98310.28;;;19.64;69.23
77587;BME280;66744;49.716;17.158;2023-07-28T07:22:00;98309.75;;;19.66;69.90
77587;BME280;66744;49.716;17.158;2023-07-28T07:25:04;98298.31;;;19.75;70.01
77587;BME280;66744;49.716;17.158;2023-07-28T07:28:06;98297.06;;;19.76;69.36
77587;BME280;66744;49.716;17.158;2023-07-28T07:31:14;98293.50;;;19.75;69.52
77587;BME280;66744;49.716;17.158;2023-07-28T07:34:19;98317.50;;;19.89;69.95
77587;BME280;66744;49.716;17.158;2023-07-28T07:37:22;98302.06;;;19.88;69.97
77587;BME280;66744;49.716;17.158;2023-07-28T07:40:27;98313.66;;;19.98;69.49
77587;BME280;66744;49.716;17.158;2023-07-28T07:43:28;98312.38;;;19.99;69.31
77587;BME280;66744;49.716;17.158;2023-07-28T07:46:30;98322.00;;;20.04;69.95
77587;BME280;66744;49.716;17.158;2023-07-28T07:49:31;98316.88;;;20.08;70.05
77587;BME280;66744;49.716;17.158;2023-07-28T07:52:33;98325.44;;;20.21;69.90
77587;BME280;66744;49.716;17.158;2023-07-28T07:55:41;98318.31;;;20.20;68.82
77587;BME280;66744;49.716;17.158;2023-07-28T07:58:45;98323.41;;;20.21;68.83
77587;BME280;66744;49.716;17.158;2023-07-28T08:01:49;98319.34;;;20.28;67.85
77587;BME280;66744;49.716;17.158;2023-07-28T08:04:54;98311.84;;;20.41;68.11
77587;BME280;66744;49.716;17.158;2023-07-28T08:08:01;98303.22;;;20.45;68.00
77587;BME280;66744;49.716;17.158;2023-07-28T08:11:11;98317.88;;;20.51;68.02
77587;BME280;66744;49.716;17.158;2023-07-28T08:14:12;98319.59;;;20.60;67.36
77587;BME280;66744;49.716;17.158;2023-07-28T08:17:14;98322.81;;;20.69;66.02
77587;BME280;66744;49.716;17.158;2023-07-28T08:20:18;98339.34;;;20.62;66.31
77587;BME280;66744;49.716;17.158;2023-07-28T08:23:19;98338.31;;;20.65;66.47
77587;BME280;66744;49.716;17.158;2023-07-28T08:26:30;98331.91;;;20.70;66.32
77587;BME280;66744;49.716;17.158;2023-07-28T08:29:31;98346.84;;;20.78;66.63
77587;BME280;66744;49.716;17.158;2023-07-28T08:32:33;98355.25;;;20.72;66.18
77587;BME280;66744;49.716;17.158;2023-07-28T08:35:35;98357.75;;;20.76;66.35
77587;BME280;66744;49.716;17.158;2023-07-28T08:38:36;98348.38;;;20.73;66.93
77587;BME280;66744;49.716;17.158;2023-07-28T08:41:38;98345.09;;;20.75;66.75
77587;BME280;66744;49.716;17.158;2023-07-28T08:44:42;98364.03;;;20.82;66.35
77587;BME280;66744;49.716;17.158;2023-07-28T08:47:52;98361.25;;;20.82;66.45
77587;BME280;66744;49.716;17.158;2023-07-28T08:50:53;98360.75;;;20.83;65.61
77587;BME280;66744;49.716;17.158;2023-07-28T08:53:55;98361.84;;;20.75;65.86
77587;BME280;66744;49.716;17.158;2023-07-28T08:57:00;98360.53;;;20.76;65.68
77587;BME280;66744;49.716;17.158;2023-07-28T09:00:10;98374.44;;;20.87;66.73
77587;BME280;66744;49.716;17.158;2023-07-28T09:03:18;98362.53;;;20.81;66.78
77587;BME280;66744;49.716;17.158;2023-07-28T09:06:29;98360.75;;;20.83;65.89
77587;BME280;66744;49.716;17.158;2023-07-28T09:09:35;98369.84;;;20.89;66.32
77587;BME280;66744;49.716;17.158;2023-07-28T09:12:50;98380.84;;;21.06;66.06
77587;BME280;66744;49.716;17.158;2023-07-28T09:15:54;98371.53;;;20.98;67.27
77587;BME280;66744;49.716;17.158;2023-07-28T09:19:05;98366.22;;;20.94;66.00
77587;BME280;66744;49.716;17.158;2023-07-28T09:22:08;98367.88;;;21.09;66.14
77587;BME280;66744;49.716;17.158;2023-07-28T09:25:14;98370.13;;;21.16;65.66
77587;BME280;66744;49.716;17.158;2023-07-28T09:28:21;98373.19;;;21.12;65.82
77587;BME280;66744;49.716;17.158;2023-07-28T09:31:29;98379.78;;;21.15;65.47
77587;BME280;66744;49.716;17.158;2023-07-28T09:34:31;98381.22;;;21.21;66.03
77587;BME280;66744;49.716;17.158;2023-07-28T09:37:38;98364.25;;;21.19;65.92
77587;BME280;66744;49.716;17.158;2023-07-28T09:40:41;98364.06;;;21.12;65.26
77587;BME280;66744;49.716;17.158;2023-07-28T09:43:45;98374.25;;;21.03;66.02
77587;BME280;66744;49.716;17.158;2023-07-28T09:46:50;98376.28;;;21.09;66.47
77587;BME280;66744;49.716;17.158;2023-07-28T09:49:54;98372.41;;;21.17;65.83
77587;BME280;66744;49.716;17.158;2023-07-28T09:53:09;98362.59;;;21.29;65.33
77587;BME280;66744;49.716;17.158;2023-07-28T09:56:18;98361.97;;;21.42;64.88
77587;BME280;66744;49.716;17.158;2023-07-28T09:59:32;98358.66;;;21.43;64.94
77587;BME280;66744;49.716;17.158;2023-07-28T10:02:38;98356.38;;;21.42;65.79
77587;BME280;66744;49.716;17.158;2023-07-28T10:08:58;98363.63;;;21.32;65.69
77587;BME280;66744;49.716;17.158;2023-07-28T10:12:00;98360.63;;;21.24;66.61
77587;BME280;66744;49.716;17.158;2023-07-28T10:15:13;98370.19;;;21.34;66.02
77587;BME280;66744;49.716;17.158;2023-07-28T10:18:19;98361.34;;;21.30;65.52
77587;BME280;66744;49.716;17.158;2023-07-28T10:21:27;98371.16;;;21.37;65.70
77587;BME280;66744;49.716;17.158;2023-07-28T10:25:00;98392.41;;;21.45;65.47
77587;BME280;66744;49.716;17.158;2023-07-28T10:28:02;98380.03;;;21.41;66.94
77587;BME280;66744;49.716;17.158;2023-07-28T10:31:09;98396.03;;;21.40;67.25
77587;BME280;66744;49.716;17.158;2023-07-28T10:34:28;98390.44;;;21.40;68.21
77587;BME280;66744;49.716;17.158;2023-07-28T10:37:32;98391.66;;;21.45;69.77
77587;BME280;66744;49.716;17.158;2023-07-28T10:40:36;98383.28;;;21.45;69.06
77587;BME280;66744;49.716;17.158;2023-07-28T10:43:41;98379.97;;;21.46;70.33
77587;BME280;66744;49.716;17.158;2023-07-28T10:46:43;98374.53;;;21.54;70.09
77587;BME280;66744;49.716;17.158;2023-07-28T10:49:47;98374.25;;;21.57;70.23
77587;BME280;66744;49.716;17.158;2023-07-28T10:52:48;98375.81;;;21.53;70.12
77587;BME280;66744;49.716;17.158;2023-07-28T10:55:50;98366.97;;;21.49;69.91
77587;BME280;66744;49.716;17.158;2023-07-28T10:59:10;98334.78;;;21.42;70.07
77587;BME280;66744;49.716;17.158;2023-07-28T11:02:14;98345.06;;;21.53;70.47
77587;BME280;66744;49.716;17.158;2023-07-28T11:08:23;98367.31;;;21.83;70.61
77587;BME280;66744;49.716;17.158;2023-07-28T11:11:24;98355.84;;;21.86;69.55
77587;BME280;66744;49.716;17.158;2023-07-28T11:14:26;98363.50;;;22.04;70.58
77587;BME280;66744;49.716;17.158;2023-07-28T11:17:27;98353.22;;;22.12;68.06
77587;BME280;66744;49.716;17.158;2023-07-28T11:20:38;98351.19;;;22.13;67.95
77587;BME280;66744;49.716;17.158;2023-07-28T11:23:45;98352.53;;;22.06;69.11
77587;BME280;66744;49.716;17.158;2023-07-28T11:26:46;98346.59;;;21.97;68.82
77587;BME280;66744;49.716;17.158;2023-07-28T11:35:08;98339.06;;;21.86;68.07
77587;BME280;66744;49.716;17.158;2023-07-28T11:38:10;98335.50;;;21.86;68.42
77587;BME280;66744;49.716;17.158;2023-07-28T11:42:18;98333.53;;;21.81;67.65
77587;BME280;66744;49.716;17.158;2023-07-28T11:46:31;98345.97;;;21.85;68.27
77587;BME280;66744;49.716;17.158;2023-07-28T11:50:42;98346.97;;;21.88;67.71
77587;BME280;66744;49.716;17.158;2023-07-28T11:53:50;98352.00;;;21.89;68.63
77587;BME280;66744;49.716;17.158;2023-07-28T12:00:47;98360.31;;;21.95;69.23
77587;BME280;66744;49.716;17.158;2023-07-28T12:07:50;98379.25;;;22.07;68.69
77587;BME280;66744;49.716;17.158;2023-07-28T12:11:05;98384.31;;;22.09;70.19
77587;BME280;66744;49.716;17.158;2023-07-28T12:14:57;98397.41;;;22.20;69.44
77587;BME280;66744;49.716;17.158;2023-07-28T12:19:03;98392.00;;;22.22;70.44
77587;BME280;66744;49.716;17.158;2023-07-28T12:22:13;98383.94;;;22.18;71.11
77587;BME280;66744;49.716;17.158;2023-07-28T12:25:34;98390.19;;;22.24;70.78
77587;BME280;66744;49.716;17.158;2023-07-28T12:29:06;98391.28;;;22.21;71.49
77587;BME280;66744;49.716;17.158;2023-07-28T12:32:27;98379.00;;;22.24;70.73
77587;BME280;66744;49.716;17.158;2023-07-28T12:35:29;98373.47;;;22.37;70.05
77587;BME280;66744;49.716;17.158;2023-07-28T12:38:41;98369.09;;;22.42;71.73
77587;BME280;66744;49.716;17.158;2023-07-28T12:41:45;98356.50;;;22.48;70.97
77587;BME280;66744;49.716;17.158;2023-07-28T12:44:53;98372.81;;;22.63;68.43
77587;BME280;66744;49.716;17.158;2023-07-28T12:48:19;98366.63;;;22.70;68.21
77587;BME280;66744;49.716;17.158;2023-07-28T12:51:51;98369.78;;;22.80;68.56
77587;BME280;66744;49.716;17.158;2023-07-28T12:54:53;98360.53;;;22.85;68.82
77587;BME280;66744;49.716;17.158;2023-07-28T12:57:59;98365.38;;;22.84;68.55
77587;BME280;66744;49.716;17.158;2023-07-28T13:01:01;98361.41;;;22.93;67.84
77587;BME280;66744;49.716;17.158;2023-07-28T13:04:58;98374.13;;;22.94;68.07
77587;BME280;66744;49.716;17.158;2023-07-28T13:07:59;98374.69;;;22.92;67.18
77587;BME280;66744;49.716;17.158;2023-07-28T13:11:01;98383.31;;;22.94;68.35
77587;BME280;66744;49.716;17.158;2023-07-28T13:14:03;98373.69;;;22.90;68.29
77587;BME280;66744;49.716;17.158;2023-07-28T13:17:05;98379.44;;;22.97;69.88
77587;BME280;66744;49.716;17.158;2023-07-28T13:20:07;98371.34;;;22.94;70.92
77587;BME280;66744;49.716;17.158;2023-07-28T13:23:15;98373.06;;;22.97;70.23
77587;BME280;66744;49.716;17.158;2023-07-28T13:26:17;98365.22;;;22.95;70.39
77587;BME280;66744;49.716;17.158;2023-07-28T13:29:18;98375.56;;;23.00;70.22
77587;BME280;66744;49.716;17.158;2023-07-28T13:32:24;98367.47;;;22.97;71.49
77587;BME280;66744;49.716;17.158;2023-07-28T13:35:29;98366.75;;;23.09;72.70
77587;BME280;66744;49.716;17.158;2023-07-28T13:38:34;98373.00;;;23.29;72.98
77587;BME280;66744;49.716;17.158;2023-07-28T13:41:36;98369.38;;;23.34;70.93
77587;BME280;66744;49.716;17.158;2023-07-28T13:44:38;98374.47;;;23.48;68.74
77587;BME280;66744;49.716;17.158;2023-07-28T13:47:42;98372.84;;;23.53;68.82
77587;BME280;66744;49.716;17.158;2023-07-28T13:50:51;98375.13;;;23.54;68.30
77587;BME280;66744;49.716;17.158;2023-07-28T13:53:56;98364.97;;;23.51;67.59
77587;BME280;66744;49.716;17.158;2023-07-28T13:57:00;98360.09;;;23.52;66.31
77587;BME280;66744;49.716;17.158;2023-07-28T14:00:05;98374.44;;;23.61;66.70
77587;BME280;66744;49.716;17.158;2023-07-28T14:03:11;98366.78;;;23.62;67.80
77587;BME280;66744;49.716;17.158;2023-07-28T14:06:14;98374.78;;;23.71;68.15
77587;BME280;66744;49.716;17.158;2023-07-28T14:09:19;98367.88;;;23.72;68.88
77587;BME280;66744;49.716;17.158;2023-07-28T14:12:26;98358.25;;;23.67;68.30
77587;BME280;66744;49.716;17.158;2023-07-28T14:15:33;98352.13;;;23.69;68.06
77587;BME280;66744;49.716;17.158;2023-07-28T14:18:37;98352.22;;;23.76;67.87
77587;BME280;66744;49.716;17.158;2023-07-28T14:21:38;98364.72;;;23.89;67.85
77587;BME280;66744;49.716;17.158;2023-07-28T14:24:42;98366.94;;;24.03;66.75
77587;BME280;66744;49.716;17.158;2023-07-28T14:27:45;98364.28;;;24.11;66.75
77587;BME280;66744;49.716;17.158;2023-07-28T14:30:50;98350.13;;;24.16;66.11
77587;BME280;66744;49.716;17.158;2023-07-28T14:34:02;98357.00;;;24.28;65.10
77587;BME280;66744;49.716;17.158;2023-07-28T14:37:13;98351.13;;;24.40;63.71
77587;BME280;66744;49.716;17.158;2023-07-28T14:40:18;98360.03;;;24.51;62.51
77587;BME280;66744;49.716;17.158;2023-07-28T14:43:19;98347.38;;;24.58;62.61
77587;BME280;66744;49.716;17.158;2023-07-28T14:46:21;98364.09;;;24.63;62.64
77587;BME280;66744;49.716;17.158;2023-07-28T14:49:23;98351.13;;;24.60;62.07
77587;BME280;66744;49.716;17.158;2023-07-28T14:52:35;98353.03;;;24.65;62.99
77587;BME280;66744;49.716;17.158;2023-07-28T14:55:50;98345.56;;;24.68;62.92
77587;BME280;66744;49.716;17.158;2023-07-28T14:58:54;98344.56;;;24.78;61.97
77587;BME280;66744;49.716;17.158;2023-07-28T15:01:57;98347.38;;;24.78;61.37
77587;BME280;66744;49.716;17.158;2023-07-28T15:05:25;98340.88;;;24.83;61.40
77587;BME280;66744;49.716;17.158;2023-07-28T15:08:39;98344.97;;;24.82;60.40
77587;BME280;66744;49.716;17.158;2023-07-28T15:11:45;98344.09;;;24.88;60.35
77587;BME280;66744;49.716;17.158;2023-07-28T15:14:47;98342.38;;;24.84;59.74
77587;BME280;66744;49.716;17.158;2023-07-28T15:17:48;98340.59;;;24.95;60.33
77587;BME280;66744;49.716;17.158;2023-07-28T15:20:52;98329.75;;;24.99;60.12
77587;BME280;66744;49.716;17.158;2023-07-28T15:23:57;98329.47;;;25.10;59.69
77587;BME280;66744;49.716;17.158;2023-07-28T15:26:58;98333.81;;;25.18;58.83
77587;BME280;66744;49.716;17.158;2023-07-28T15:30:10;98334.50;;;25.32;56.85
77587;BME280;66744;49.716;17.158;2023-07-28T15:33:20;98334.34;;;25.37;56.23
77587;BME280;66744;49.716;17.158;2023-07-28T15:36:21;98335.88;;;25.46;55.91
77587;BME280;66744;49.716;17.158;2023-07-28T15:39:26;98345.56;;;25.58;55.20
77587;BME280;66744;49.716;17.158;2023-07-28T15:42:28;98329.44;;;25.59;54.82
77587;BME280;66744;49.716;17.158;2023-07-28T15:45:31;98332.09;;;25.64;52.32
77587;BME280;66744;49.716;17.158;2023-07-28T15:48:34;98330.03;;;25.65;52.77
77587;BME280;66744;49.716;17.158;2023-07-28T15:51:47;98348.09;;;25.77;53.94
77587;BME280;66744;49.716;17.158;2023-07-28T15:54:49;98341.94;;;25.86;52.76
77587;BME280;66744;49.716;17.158;2023-07-28T16:01:14;98343.44;;;25.87;50.28
77587;BME280;66744;49.716;17.158;2023-07-28T16:04:16;98337.59;;;25.77;49.82
77587;BME280;66744;49.716;17.158;2023-07-28T16:07:19;98339.31;;;25.80;50.13
77587;BME280;66744;49.716;17.158;2023-07-28T16:10:24;98336.84;;;25.84;50.80
77587;BME280;66744;49.716;17.158;2023-07-28T16:13:25;98350.41;;;25.93;49.59
77587;BME280;66744;49.716;17.158;2023-07-28T16:16:29;98341.56;;;25.89;49.85
77587;BME280;66744;49.716;17.158;2023-07-28T16:19:41;98347.38;;;25.84;49.01
77587;BME280;66744;49.716;17.158;2023-07-28T16:22:43;98343.25;;;25.85;48.61
77587;BME280;66744;49.716;17.158;2023-07-28T16:25:54;98350.19;;;25.84;48.35
77587;BME280;66744;49.716;17.158;2023-07-28T16:28:56;98351.28;;;25.81;48.59
77587;BME280;66744;49.716;17.158;2023-07-28T16:31:58;98348.63;;;25.75;49.21
77587;BME280;66744;49.716;17.158;2023-07-28T16:35:10;98349.97;;;25.74;50.02
77587;BME280;66744;49.716;17.158;2023-07-28T16:38:11;98361.06;;;25.80;49.79
77587;BME280;66744;49.716;17.158;2023-07-28T16:41:13;98360.84;;;25.78;50.87